createdAt,value
2023-05-25T00:02:24.924Z,18.49
2023-05-25T00:04:52.233Z,18.64
2023-05-25T00:07:19.213Z,18.98
2023-05-25T00:09:46.666Z,19.13
2023-05-25T00:12:14.382Z,19.11
2023-05-25T00:14:41.064Z,19.19
2023-05-25T00:17:10.299Z,19.16
2023-05-25T00:19:42.459Z,18.90
2023-05-25T00:22:10.635Z,18.49
2023-05-25T00:24:38.974Z,18.36
2023-05-25T00:27:07.306Z,18.36
2023-05-25T00:29:35.246Z,18.32
2023-05-25T00:32:02.930Z,17.98
2023-05-25T00:34:29.622Z,17.82
2023-05-25T00:36:56.372Z,18.23
2023-05-25T00:39:23.249Z,18.46
2023-05-25T00:41:50.335Z,18.63
2023-05-25T00:44:21.896Z,18.86
2023-05-25T00:46:50.852Z,18.85
2023-05-25T00:49:19.465Z,18.76
2023-05-25T00:51:47.845Z,18.17
2023-05-25T00:54:18.597Z,17.70
2023-05-25T00:56:52.989Z,18.01
2023-05-25T00:59:28.647Z,18.39
2023-05-25T01:01:56.530Z,17.98
2023-05-25T01:04:23.853Z,17.84
2023-05-25T01:06:50.808Z,18.29
2023-05-25T01:09:22.495Z,18.26
2023-05-25T01:11:51.520Z,18.30
2023-05-25T01:14:21.946Z,18.44
2023-05-25T01:16:49.756Z,18.57
2023-05-25T01:19:17.245Z,18.57
2023-05-25T01:22:11.704Z,18.57
2023-05-25T01:24:43.331Z,18.72
2023-05-25T01:27:24.904Z,18.74
2023-05-25T01:29:53.517Z,18.69
2023-05-25T01:32:20.521Z,18.74
2023-05-25T01:34:48.744Z,18.74
2023-05-25T01:37:17.511Z,18.72
2023-05-25T01:39:44.227Z,18.66
2023-05-25T01:42:10.999Z,18.45
2023-05-25T01:44:39.029Z,18.72
2023-05-25T01:47:11.545Z,18.65
2023-05-25T01:49:50.498Z,18.21
2023-05-25T01:52:26.527Z,17.23
2023-05-25T01:54:57.455Z,16.52
2023-05-25T01:57:26.405Z,17.03
2023-05-25T02:00:00.097Z,16.67
2023-05-25T02:02:31.864Z,17.43
2023-05-25T02:04:59.508Z,17.66
2023-05-25T02:07:26.206Z,17.53
2023-05-25T02:09:52.960Z,17.12
2023-05-25T02:12:19.981Z,16.57
2023-05-25T02:14:48.786Z,16.97
2023-05-25T02:17:17.913Z,17.23
2023-05-25T02:19:45.936Z,17.68
2023-05-25T02:22:12.633Z,17.51
2023-05-25T02:24:39.405Z,17.45
2023-05-25T02:27:06.949Z,17.66
2023-05-25T02:29:33.625Z,17.58
2023-05-25T02:32:00.473Z,17.73
2023-05-25T02:34:27.132Z,17.58
2023-05-25T02:36:53.866Z,17.34
2023-05-25T02:39:20.526Z,17.30
2023-05-25T02:41:47.205Z,17.63
2023-05-25T02:44:13.844Z,17.92
2023-05-25T02:46:40.629Z,18.06
2023-05-25T02:49:07.422Z,18.15
2023-05-25T02:51:34.133Z,17.62
2023-05-25T02:54:00.851Z,17.35
2023-05-25T02:56:27.730Z,17.12
2023-05-25T02:58:54.604Z,17.07
2023-05-25T03:01:21.436Z,17.17
2023-05-25T03:03:52.500Z,17.54
2023-05-25T03:06:21.546Z,17.83
2023-05-25T03:08:48.432Z,17.93
2023-05-25T03:11:15.663Z,17.89
2023-05-25T03:13:42.350Z,17.76
2023-05-25T03:16:09.166Z,17.92
2023-05-25T03:18:36.278Z,18.07
2023-05-25T03:21:02.960Z,18.05
2023-05-25T03:23:29.659Z,18.22
2023-05-25T03:25:56.671Z,18.24
2023-05-25T03:28:23.324Z,17.81
2023-05-25T03:30:50.098Z,17.44
2023-05-25T03:33:16.790Z,17.19
2023-05-25T03:35:43.734Z,17.29
2023-05-25T03:38:10.569Z,17.81
2023-05-25T03:40:37.250Z,18.06
2023-05-25T03:43:03.927Z,18.25
2023-05-25T03:45:30.783Z,18.31
2023-05-25T03:47:57.464Z,18.33
2023-05-25T03:50:24.211Z,18.51
2023-05-25T03:52:50.845Z,17.94
2023-05-25T03:55:17.721Z,17.75
2023-05-25T03:57:44.408Z,17.41
2023-05-25T04:00:11.854Z,17.20
2023-05-25T04:02:38.540Z,17.52
2023-05-25T04:05:05.755Z,17.28
2023-05-25T04:07:32.545Z,17.14
2023-05-25T04:09:59.837Z,17.78
2023-05-25T04:12:27.630Z,18.29
2023-05-25T04:14:54.294Z,18.52
2023-05-25T04:17:24.903Z,18.32
2023-05-25T04:19:52.369Z,18.21
2023-05-25T04:22:19.226Z,18.23
2023-05-25T04:24:46.508Z,18.42
2023-05-25T04:27:14.442Z,18.21
2023-05-25T04:29:44.198Z,18.08
2023-05-25T04:32:10.999Z,18.42
2023-05-25T04:34:37.809Z,18.47
2023-05-25T04:37:05.797Z,18.81
2023-05-25T04:39:32.944Z,18.50
2023-05-25T04:42:02.125Z,18.73
2023-05-25T04:44:29.882Z,18.63
2023-05-25T04:46:56.833Z,18.89
2023-05-25T04:49:23.514Z,19.19
2023-05-25T04:51:50.348Z,19.16
2023-05-25T04:54:17.146Z,19.12
2023-05-25T04:56:44.191Z,19.09
2023-05-25T04:59:11.246Z,19.30
2023-05-25T05:01:41.349Z,19.65
2023-05-25T05:04:08.571Z,19.50
2023-05-25T05:06:36.581Z,19.74
2023-05-25T05:09:03.705Z,19.88
2023-05-25T05:11:30.517Z,19.85
2023-05-25T05:13:57.185Z,20.03
2023-05-25T05:16:23.952Z,19.84
2023-05-25T05:18:50.711Z,19.83
2023-05-25T05:21:17.363Z,19.80
2023-05-25T05:23:44.102Z,19.65
2023-05-25T05:26:11.837Z,19.33
2023-05-25T05:28:38.558Z,19.52
2023-05-25T05:31:05.493Z,19.70
2023-05-25T05:33:32.317Z,19.48
2023-05-25T05:35:59.597Z,19.42
2023-05-25T05:38:26.831Z,19.58
2023-05-25T05:40:53.626Z,19.90
2023-05-25T05:43:20.425Z,20.58
2023-05-25T05:45:47.265Z,20.55
2023-05-25T05:48:14.100Z,20.58
2023-05-25T05:50:42.262Z,20.04
2023-05-25T05:53:10.049Z,20.22
2023-05-25T05:55:36.898Z,20.38
2023-05-25T05:58:03.725Z,20.50
2023-05-25T06:00:30.556Z,20.81
2023-05-25T06:02:57.427Z,21.07
2023-05-25T06:05:24.278Z,21.16
2023-05-25T06:07:51.055Z,21.46
2023-05-25T06:10:17.811Z,21.17
2023-05-25T06:12:44.573Z,21.42
2023-05-25T06:15:11.725Z,21.73
2023-05-25T06:17:38.401Z,21.50
2023-05-25T06:20:06.671Z,21.67
2023-05-25T06:22:33.591Z,21.56
2023-05-25T06:25:04.700Z,21.38
2023-05-25T06:27:31.358Z,21.39
2023-05-25T06:29:58.064Z,20.90
2023-05-25T06:32:24.725Z,21.53
2023-05-25T06:34:51.373Z,21.65
2023-05-25T06:37:18.122Z,21.22
2023-05-25T06:39:44.898Z,21.98
2023-05-25T06:42:11.837Z,22.31
2023-05-25T06:44:38.760Z,22.29
2023-05-25T06:47:05.699Z,21.00
2023-05-25T06:49:32.862Z,20.82
2023-05-25T06:51:59.713Z,20.91
2023-05-25T06:54:27.125Z,21.52
2023-05-25T06:56:53.953Z,21.58
2023-05-25T06:59:20.713Z,21.90
2023-05-25T07:01:47.682Z,21.45
2023-05-25T07:04:14.499Z,21.91
2023-05-25T07:06:41.186Z,20.81
2023-05-25T07:09:07.921Z,21.59
2023-05-25T07:11:34.653Z,21.42
2023-05-25T07:14:01.677Z,21.64
2023-05-25T07:16:28.508Z,21.45
2023-05-25T07:18:55.231Z,22.02
2023-05-25T07:21:21.940Z,21.57
2023-05-25T07:23:48.718Z,21.87
2023-05-25T07:26:15.778Z,22.42
2023-05-25T07:28:42.461Z,21.84
2023-05-25T07:31:11.157Z,22.16
2023-05-25T07:33:37.788Z,21.63
2023-05-25T07:36:04.772Z,22.21
2023-05-25T07:38:31.486Z,22.27
2023-05-25T07:40:58.140Z,22.55
2023-05-25T07:43:24.976Z,22.40
2023-05-25T07:45:51.724Z,21.99
2023-05-25T07:48:18.456Z,22.16
2023-05-25T07:50:45.186Z,22.15
2023-05-25T07:53:11.825Z,22.46
2023-05-25T07:55:38.572Z,22.73
2023-05-25T07:58:07.479Z,22.24
2023-05-25T08:00:34.688Z,22.19
2023-05-25T08:03:05.060Z,21.60
2023-05-25T08:05:31.880Z,21.75
2023-05-25T08:07:58.643Z,21.77
2023-05-25T08:10:34.934Z,21.95
2023-05-25T08:13:01.652Z,22.39
2023-05-25T08:15:28.635Z,22.16
2023-05-25T08:17:56.858Z,21.90
2023-05-25T08:20:24.974Z,22.05
2023-05-25T08:22:53.723Z,21.70
2023-05-25T08:25:20.849Z,21.24
2023-05-25T08:27:47.616Z,20.39
2023-05-25T08:30:17.496Z,20.19
2023-05-25T08:32:44.287Z,19.80
2023-05-25T08:35:11.079Z,20.02
2023-05-25T08:37:38.014Z,19.88
2023-05-25T08:40:08.050Z,19.70
2023-05-25T08:42:34.892Z,20.20
2023-05-25T08:45:02.972Z,20.59
2023-05-25T08:47:33.829Z,20.23
2023-05-25T08:50:01.858Z,20.21
2023-05-25T08:52:33.263Z,20.54
2023-05-25T08:55:04.139Z,20.81
2023-05-25T08:57:40.843Z,21.08
2023-05-25T09:00:11.674Z,20.90
2023-05-25T09:03:02.648Z,20.59
2023-05-25T09:05:29.543Z,20.89
2023-05-25T09:07:56.911Z,21.00
2023-05-25T09:10:26.494Z,20.42
2023-05-25T09:12:55.066Z,20.31
2023-05-25T09:15:21.932Z,20.52
2023-05-25T09:17:48.877Z,20.34
2023-05-25T09:20:16.699Z,20.38
2023-05-25T09:22:44.423Z,20.14
2023-05-25T09:25:12.070Z,20.33
2023-05-25T09:27:38.903Z,20.11
2023-05-25T09:30:06.750Z,19.99
2023-05-25T09:32:33.657Z,20.10
2023-05-25T09:35:14.724Z,19.63
2023-05-25T09:37:42.944Z,19.71
2023-05-25T09:40:14.780Z,19.06
2023-05-25T09:42:42.758Z,18.80
2023-05-25T09:45:09.675Z,19.20
2023-05-25T09:47:36.939Z,19.86
2023-05-25T09:50:04.092Z,20.11
2023-05-25T09:52:31.578Z,20.04
2023-05-25T09:54:58.181Z,20.00
2023-05-25T09:57:27.028Z,20.28
2023-05-25T09:59:54.126Z,20.30
2023-05-25T10:02:21.209Z,20.67
2023-05-25T10:04:48.708Z,20.44
2023-05-25T10:07:16.237Z,20.71
2023-05-25T10:09:46.169Z,20.99
2023-05-25T10:12:18.202Z,21.11
2023-05-25T10:14:46.935Z,21.23
2023-05-25T10:17:17.752Z,20.91
2023-05-25T10:19:56.587Z,21.05
2023-05-25T10:22:36.501Z,21.02
2023-05-25T10:25:06.304Z,20.97
2023-05-25T10:27:41.224Z,20.99
2023-05-25T10:30:09.724Z,20.91
2023-05-25T10:32:37.543Z,21.36
2023-05-25T10:35:06.300Z,22.01
2023-05-25T10:37:34.359Z,21.94
2023-05-25T10:40:02.170Z,21.58
2023-05-25T10:42:29.893Z,20.91
2023-05-25T10:44:57.822Z,20.75
2023-05-25T10:47:25.053Z,20.84
2023-05-25T10:49:56.268Z,20.98
2023-05-25T10:52:27.872Z,21.46
2023-05-25T10:55:04.250Z,20.95
2023-05-25T10:57:31.653Z,21.05
2023-05-25T11:00:06.631Z,21.25
2023-05-25T11:02:51.645Z,21.37
2023-05-25T11:05:27.828Z,21.47
2023-05-25T11:07:56.294Z,21.72
2023-05-25T11:10:41.976Z,21.28
2023-05-25T11:13:40.403Z,21.35
2023-05-25T11:16:12.471Z,21.44
2023-05-25T11:18:41.674Z,21.39
2023-05-25T11:21:21.457Z,21.56
2023-05-25T11:24:06.896Z,21.29
2023-05-25T11:26:34.732Z,21.61
2023-05-25T11:29:12.157Z,21.55
2023-05-25T11:31:43.379Z,21.08
2023-05-25T11:34:12.092Z,21.64
2023-05-25T11:36:39.482Z,21.69
2023-05-25T11:39:16.995Z,22.25
2023-05-25T11:42:04.389Z,22.19
2023-05-25T11:44:33.919Z,22.02
2023-05-25T11:47:08.333Z,21.89
2023-05-25T11:49:38.780Z,22.28
2023-05-25T11:52:07.204Z,21.93
2023-05-25T11:54:34.973Z,21.71
2023-05-25T11:57:03.104Z,21.40
2023-05-25T11:59:32.488Z,21.68
2023-05-25T12:02:04.647Z,21.86
2023-05-25T12:04:34.874Z,21.95
2023-05-25T12:07:03.727Z,22.04
2023-05-25T12:09:31.029Z,22.25
2023-05-25T12:11:58.213Z,22.29
2023-05-25T12:14:25.558Z,21.96
2023-05-25T12:16:52.931Z,22.36
2023-05-25T12:19:20.191Z,21.88
2023-05-25T12:21:47.982Z,22.19
2023-05-25T12:24:14.844Z,22.76
2023-05-25T12:26:57.535Z,22.08
2023-05-25T12:29:26.125Z,22.18
2023-05-25T12:31:53.132Z,22.28
2023-05-25T12:34:21.224Z,22.33
2023-05-25T12:36:52.544Z,22.32
2023-05-25T12:39:34.624Z,22.08
2023-05-25T12:42:02.968Z,22.33
2023-05-25T12:44:31.677Z,22.14
2023-05-25T12:47:28.124Z,22.66
2023-05-25T12:50:11.737Z,22.67
2023-05-25T12:52:41.301Z,22.62
2023-05-25T12:55:21.592Z,22.40
2023-05-25T12:57:52.747Z,23.29
2023-05-25T13:00:22.126Z,23.10
2023-05-25T13:02:50.519Z,22.99
2023-05-25T13:05:21.929Z,23.00
2023-05-25T13:07:49.062Z,22.36
2023-05-25T13:10:19.183Z,22.84
2023-05-25T13:12:47.674Z,23.15
2023-05-25T13:15:21.068Z,23.39
2023-05-25T13:17:49.078Z,23.22
2023-05-25T13:20:16.358Z,23.29
2023-05-25T13:22:44.970Z,23.13
2023-05-25T13:25:13.138Z,23.60
2023-05-25T13:27:47.214Z,23.52
2023-05-25T13:30:14.634Z,23.43
2023-05-25T13:32:43.497Z,23.83
2023-05-25T13:35:19.515Z,22.72
2023-05-25T13:37:46.546Z,23.18
2023-05-25T13:40:13.756Z,23.27
2023-05-25T13:42:40.847Z,23.43
2023-05-25T13:45:08.050Z,23.56
2023-05-25T13:47:35.005Z,23.47
2023-05-25T13:50:02.699Z,23.84
2023-05-25T13:52:29.821Z,23.57
2023-05-25T13:54:56.606Z,22.81
2023-05-25T13:57:23.226Z,23.11
2023-05-25T13:59:49.833Z,23.80
2023-05-25T14:02:16.701Z,24.10
2023-05-25T14:04:43.353Z,24.36
2023-05-25T14:07:10.162Z,24.61
2023-05-25T14:09:36.990Z,24.25
2023-05-25T14:12:04.037Z,24.70
2023-05-25T14:14:32.908Z,25.11
2023-05-25T14:17:01.303Z,25.27
2023-05-25T14:19:28.798Z,25.16
2023-05-25T14:22:11.766Z,25.36
2023-05-25T14:24:39.775Z,24.74
2023-05-25T14:27:07.445Z,24.73
2023-05-25T14:29:34.503Z,24.13
2023-05-25T14:32:02.134Z,24.27
2023-05-25T14:34:29.674Z,24.41
2023-05-25T14:36:56.405Z,24.71
2023-05-25T14:39:23.223Z,25.28
2023-05-25T14:41:49.967Z,25.59
2023-05-25T14:44:16.712Z,24.93
2023-05-25T14:46:43.465Z,25.20
2023-05-25T14:49:10.532Z,25.10
2023-05-25T14:51:38.094Z,24.61
2023-05-25T14:54:07.300Z,25.49
2023-05-25T14:56:34.418Z,25.55
2023-05-25T14:59:01.180Z,25.34
2023-05-25T15:01:29.482Z,25.49
2023-05-25T15:03:56.736Z,25.16
2023-05-25T15:06:23.576Z,25.55
2023-05-25T15:08:50.917Z,25.41
2023-05-25T15:11:18.741Z,25.61
2023-05-25T15:13:45.687Z,25.51
2023-05-25T15:16:13.840Z,25.42
2023-05-25T15:18:40.624Z,25.32
2023-05-25T15:21:07.290Z,24.67
2023-05-25T15:23:34.043Z,25.14
2023-05-25T15:26:04.330Z,25.50
2023-05-25T15:28:31.421Z,25.74
2023-05-25T15:30:59.949Z,24.92
2023-05-25T15:33:40.012Z,25.25
2023-05-25T15:36:15.230Z,25.45
2023-05-25T15:38:43.450Z,24.66
2023-05-25T15:41:11.552Z,25.05
2023-05-25T15:43:38.280Z,24.16
2023-05-25T15:46:05.008Z,24.19
2023-05-25T15:48:31.687Z,24.20
2023-05-25T15:50:58.331Z,24.45
2023-05-25T15:53:25.058Z,23.74
2023-05-25T15:55:51.893Z,23.29
2023-05-25T15:58:18.629Z,22.59
2023-05-25T16:00:45.425Z,22.16
2023-05-25T16:03:12.344Z,22.77
2023-05-25T16:05:39.036Z,22.69
2023-05-25T16:08:05.701Z,23.18
2023-05-25T16:10:32.430Z,22.79
2023-05-25T16:12:59.081Z,22.85
2023-05-25T16:15:25.996Z,22.28
2023-05-25T16:17:52.756Z,22.11
2023-05-25T16:20:19.460Z,22.32
2023-05-25T16:22:46.339Z,22.43
2023-05-25T16:25:13.027Z,22.56
2023-05-25T16:27:39.768Z,21.97
2023-05-25T16:30:07.029Z,21.94
2023-05-25T16:32:33.698Z,21.64
2023-05-25T16:35:00.485Z,21.40
2023-05-25T16:37:27.606Z,20.57
2023-05-25T16:39:54.224Z,20.03
2023-05-25T16:42:21.186Z,19.98
2023-05-25T16:44:48.010Z,20.20
2023-05-25T16:47:14.797Z,20.60
2023-05-25T16:49:41.492Z,20.24
2023-05-25T16:52:09.800Z,20.65
2023-05-25T16:54:36.457Z,20.68
2023-05-25T16:57:03.268Z,20.99
2023-05-25T16:59:29.996Z,21.12
2023-05-25T17:01:56.765Z,21.18
2023-05-25T17:04:23.468Z,21.28
2023-05-25T17:06:50.118Z,20.89
2023-05-25T17:09:16.938Z,20.72
2023-05-25T17:11:43.604Z,20.10
2023-05-25T17:14:10.550Z,19.98
2023-05-25T17:16:37.347Z,20.27
2023-05-25T17:19:04.004Z,20.27
2023-05-25T17:21:30.929Z,20.60
2023-05-25T17:23:57.711Z,20.55
2023-05-25T17:26:24.343Z,20.81
2023-05-25T17:28:51.076Z,20.32
2023-05-25T17:31:17.782Z,19.55
2023-05-25T17:33:44.610Z,20.01
2023-05-25T17:36:11.232Z,20.26
2023-05-25T17:38:38.184Z,19.96
2023-05-25T17:41:04.916Z,20.26
2023-05-25T17:43:31.547Z,20.50
2023-05-25T17:45:59.225Z,20.61
2023-05-25T17:48:26.019Z,20.52
2023-05-25T17:50:52.744Z,20.31
2023-05-25T17:53:19.372Z,20.34
2023-05-25T17:55:46.207Z,20.61
2023-05-25T17:58:13.072Z,20.54
2023-05-25T18:00:39.808Z,20.75
2023-05-25T18:03:06.681Z,20.89
2023-05-25T18:05:33.384Z,20.82
2023-05-25T18:08:00.180Z,20.39
2023-05-25T18:10:27.075Z,20.35
2023-05-25T18:12:54.292Z,20.39
2023-05-25T18:15:21.856Z,20.59
2023-05-25T18:17:48.653Z,20.72
2023-05-25T18:20:15.500Z,20.80
2023-05-25T18:22:42.332Z,20.49
2023-05-25T18:25:09.416Z,19.86
2023-05-25T18:27:41.943Z,20.11
2023-05-25T18:30:09.163Z,20.00
2023-05-25T18:32:35.956Z,20.10
2023-05-25T18:35:02.718Z,20.32
2023-05-25T18:37:31.271Z,20.34
2023-05-25T18:39:57.950Z,18.73
2023-05-25T18:42:24.611Z,19.53
2023-05-25T18:44:51.339Z,19.44
2023-05-25T18:47:18.599Z,19.81
2023-05-25T18:49:45.481Z,19.97
2023-05-25T18:52:12.219Z,19.75
2023-05-25T18:54:39.659Z,20.07
2023-05-25T18:57:07.251Z,19.90
2023-05-25T18:59:33.970Z,19.33
2023-05-25T19:02:01.532Z,19.06
2023-05-25T19:04:28.354Z,18.83
2023-05-25T19:06:55.085Z,19.13
2023-05-25T19:09:21.734Z,18.94
2023-05-25T19:11:48.356Z,19.32
2023-05-25T19:14:15.063Z,19.47
2023-05-25T19:16:41.869Z,19.37
2023-05-25T19:19:08.606Z,19.02
2023-05-25T19:21:36.541Z,19.08
2023-05-25T19:24:03.192Z,18.74
2023-05-25T19:26:29.868Z,19.24
2023-05-25T19:28:57.417Z,18.92
2023-05-25T19:31:24.130Z,18.69
2023-05-25T19:33:50.965Z,18.92
2023-05-25T19:36:17.658Z,18.82
2023-05-25T19:38:44.463Z,19.24
2023-05-25T19:41:11.228Z,18.79
2023-05-25T19:43:37.988Z,19.28
2023-05-25T19:46:04.778Z,19.35
2023-05-25T19:48:31.896Z,19.46
2023-05-25T19:50:58.648Z,19.50
2023-05-25T19:53:25.637Z,19.25
2023-05-25T19:55:52.283Z,19.41
2023-05-25T19:58:18.959Z,18.59
2023-05-25T20:00:45.933Z,18.78
2023-05-25T20:03:12.750Z,18.02
2023-05-25T20:05:39.844Z,18.51
2023-05-25T20:08:06.486Z,18.63
2023-05-25T20:10:38.892Z,18.99
2023-05-25T20:13:07.497Z,18.72
2023-05-25T20:15:34.681Z,18.84
2023-05-25T20:18:04.567Z,18.97
2023-05-25T20:20:31.436Z,18.33
2023-05-25T20:22:58.232Z,18.04
2023-05-25T20:25:24.874Z,18.57
2023-05-25T20:27:51.551Z,18.52
2023-05-25T20:30:18.251Z,18.09
2023-05-25T20:32:44.951Z,18.21
2023-05-25T20:35:13.422Z,18.29
2023-05-25T20:37:40.121Z,18.81
2023-05-25T20:40:07.246Z,18.40
2023-05-25T20:42:33.954Z,18.33
2023-05-25T20:45:00.671Z,18.06
2023-05-25T20:47:27.408Z,18.01
2023-05-25T20:49:54.054Z,18.03
2023-05-25T20:52:21.461Z,18.15
2023-05-25T20:54:48.328Z,18.43
2023-05-25T20:57:15.283Z,18.11
2023-05-25T20:59:41.950Z,18.09
2023-05-25T21:02:08.741Z,18.30
2023-05-25T21:04:36.285Z,18.44
2023-05-25T21:07:03.042Z,18.22
2023-05-25T21:09:29.677Z,18.41
2023-05-25T21:11:56.388Z,18.33
2023-05-25T21:14:23.119Z,18.37
2023-05-25T21:16:50.168Z,18.77
2023-05-25T21:19:17.384Z,19.07
2023-05-25T21:21:44.203Z,19.12
2023-05-25T21:24:10.991Z,19.39
2023-05-25T21:26:37.707Z,19.43
2023-05-25T21:29:04.398Z,19.02
2023-05-25T21:31:31.122Z,18.82
2023-05-25T21:33:59.359Z,19.15
2023-05-25T21:36:26.855Z,18.21
2023-05-25T21:38:53.544Z,18.59
2023-05-25T21:41:20.344Z,18.78
2023-05-25T21:43:47.111Z,18.41
2023-05-25T21:46:13.871Z,18.38
2023-05-25T21:48:40.593Z,18.33
2023-05-25T21:51:07.264Z,18.40
2023-05-25T21:53:33.921Z,18.77
2023-05-25T21:56:00.583Z,18.95
2023-05-25T21:58:27.237Z,19.02
2023-05-25T22:00:53.930Z,19.15
2023-05-25T22:03:20.770Z,18.54
2023-05-25T22:05:47.446Z,18.30
2023-05-25T22:08:14.117Z,18.24
2023-05-25T22:10:41.211Z,18.50
2023-05-25T22:13:07.936Z,18.69
2023-05-25T22:15:34.896Z,18.70
2023-05-25T22:18:02.636Z,17.58
2023-05-25T22:20:29.336Z,17.28
2023-05-25T22:22:55.980Z,16.92
2023-05-25T22:25:22.946Z,17.27
2023-05-25T22:27:49.569Z,17.11
2023-05-25T22:30:16.369Z,17.23
2023-05-25T22:32:43.070Z,17.17
2023-05-25T22:35:09.790Z,16.70
2023-05-25T22:37:36.460Z,16.72
2023-05-25T22:40:05.078Z,17.08
2023-05-25T22:42:31.861Z,17.34
2023-05-25T22:44:58.957Z,16.94
2023-05-25T22:47:25.705Z,17.00
2023-05-25T22:49:52.453Z,16.95
2023-05-25T22:52:19.248Z,16.81
2023-05-25T22:54:45.919Z,16.59
2023-05-25T22:57:12.585Z,16.35
2023-05-25T22:59:39.233Z,16.23
2023-05-25T23:02:06.147Z,16.66
2023-05-25T23:04:35.182Z,16.51
2023-05-25T23:07:02.013Z,16.35
2023-05-25T23:09:28.704Z,15.94
2023-05-25T23:11:55.396Z,15.99
2023-05-25T23:14:22.135Z,16.40
2023-05-25T23:16:49.064Z,16.80
2023-05-25T23:19:16.922Z,17.13
2023-05-25T23:21:44.194Z,17.03
2023-05-25T23:24:10.989Z,16.83
2023-05-25T23:26:37.635Z,16.44
2023-05-25T23:29:04.296Z,16.95
2023-05-25T23:31:31.442Z,17.12
2023-05-25T23:33:58.161Z,17.56
2023-05-25T23:36:26.271Z,17.45
2023-05-25T23:38:53.283Z,17.46
2023-05-25T23:41:21.209Z,17.67
2023-05-25T23:43:47.930Z,17.88
2023-05-25T23:46:16.366Z,17.90
2023-05-25T23:48:44.328Z,18.02
2023-05-25T23:51:11.182Z,17.94
2023-05-25T23:53:39.194Z,17.73
2023-05-25T23:56:06.081Z,17.59
2023-05-25T23:58:32.810Z,17.54
